Time;durP1;ratioP1;P1;durP2;ratioP2;P2;SDS_P1;SDS_P2;PMS_P1;PMS_P2;Temp;Humidity;BMP_temperature;BMP_pressure;BME280_temperature;BME280_humidity;BME280_pressure;Samples;Min_cycle;Max_cycle;Signal;HPM_P1;HPM_P2
2023/12/25 00:01:00;;;;;;;;;;;;;;;7.84;100.00;96190.44;5066452;28;19958;-77
2023/12/25 00:03:26;;;;;;;;;;;;;;;7.80;100.00;96177.00;5066455;28;20230;-76
2023/12/25 00:05:52;;;;;;;;;;;;;;;7.78;100.00;96175.59;5066438;28;19958;-73
2023/12/25 00:08:18;;;;;;;;;;;;;;;7.77;100.00;96179.22;5065989;28;20004;-71
2023/12/25 00:10:43;;;;;;;;;;;;;;;7.73;100.00;96166.59;5066596;28;19960;-71
2023/12/25 00:13:09;;;;;;;;;;;;;;;7.74;100.00;96175.22;5066468;28;19954;-71
2023/12/25 00:15:35;;;;;;;;;;;;;;;7.73;100.00;96165.78;5066447;28;19957;-71
2023/12/25 00:18:01;;;;;;;;;;;;;;;7.71;100.00;96176.44;5066380;28;20277;-71
2023/12/25 00:20:27;;;;;;;;;;;;;;;7.70;100.00;96168.78;5065189;28;19972;-71
2023/12/25 00:22:52;;;;;;;;;;;;;;;7.68;100.00;96162.97;5065934;28;19958;-71
2023/12/25 00:25:18;;;;;;;;;;;;;;;7.67;100.00;96177.84;5066317;28;19998;-82
2023/12/25 00:27:44;;;;;;;;;;;;;;;7.67;100.00;96172.63;5065894;28;19965;-76
2023/12/25 00:30:10;;;;;;;;;;;;;;;7.65;100.00;96163.41;5065428;28;19955;-76
2023/12/25 00:32:37;;;;;;;;;;;;;;;7.66;100.00;96160.56;5066120;28;19981;-76
2023/12/25 00:35:03;;;;;;;;;;;;;;;7.67;100.00;96145.72;5065929;28;20256;-77
2023/12/25 00:37:29;;;;;;;;;;;;;;;7.67;100.00;96149.13;5064814;28;19961;-76
2023/12/25 00:39:55;;;;;;;;;;;;;;;7.65;100.00;96148.53;5065904;28;19957;-76
2023/12/25 00:42:21;;;;;;;;;;;;;;;7.65;100.00;96155.56;5065958;28;19961;-69
2023/12/25 00:44:47;;;;;;;;;;;;;;;7.64;100.00;96138.28;5065968;28;19994;-69
2023/12/25 00:47:12;;;;;;;;;;;;;;;7.64;100.00;96148.75;5065773;28;19969;-69
2023/12/25 00:49:38;;;;;;;;;;;;;;;7.64;100.00;96135.69;5066089;28;19948;-69
2023/12/25 00:52:04;;;;;;;;;;;;;;;7.60;100.00;96131.88;5065682;28;19955;-69
2023/12/25 00:54:31;;;;;;;;;;;;;;;7.60;100.00;96124.88;5065347;28;20020;-69
2023/12/25 00:56:58;;;;;;;;;;;;;;;7.60;100.00;96114.44;5065275;28;19963;-68
2023/12/25 00:59:24;;;;;;;;;;;;;;;7.62;100.00;96138.53;5065338;28;19965;-69
2023/12/25 01:01:49;;;;;;;;;;;;;;;7.64;100.00;96128.69;5065716;28;19968;-71
2023/12/25 01:04:15;;;;;;;;;;;;;;;7.65;100.00;96126.88;5065573;28;19962;-70
2023/12/25 01:06:41;;;;;;;;;;;;;;;7.65;100.00;96129.47;5064857;28;20138;-70
2023/12/25 01:09:07;;;;;;;;;;;;;;;7.65;100.00;96124.25;5065288;28;19968;-70
2023/12/25 01:11:39;;;;;;;;;;;;;;;7.69;100.00;96115.00;5065473;28;19966;-70
2023/12/25 01:14:05;;;;;;;;;;;;;;;7.72;100.00;96114.56;5065372;28;19957;-70
2023/12/25 01:16:30;;;;;;;;;;;;;;;7.73;100.00;96117.00;5065215;28;19992;-70
2023/12/25 01:18:56;;;;;;;;;;;;;;;7.73;100.00;96110.97;5065305;28;20013;-72
2023/12/25 01:21:22;;;;;;;;;;;;;;;7.75;100.00;96090.69;5064786;28;19937;-78
2023/12/25 01:23:48;;;;;;;;;;;;;;;7.79;100.00;96110.16;5064798;28;20224;-82
2023/12/25 01:26:14;;;;;;;;;;;;;;;7.81;100.00;96118.56;5064701;28;19964;-81
2023/12/25 01:28:39;;;;;;;;;;;;;;;7.84;100.00;96109.50;5064779;28;19963;-82
2023/12/25 01:31:06;;;;;;;;;;;;;;;7.85;100.00;96095.44;5064732;28;19960;-82
2023/12/25 01:33:31;;;;;;;;;;;;;;;7.86;100.00;96107.50;5064971;28;19950;-82
2023/12/25 01:35:57;;;;;;;;;;;;;;;7.87;100.00;96119.53;5064472;28;20265;-82
2023/12/25 01:38:23;;;;;;;;;;;;;;;7.87;100.00;96106.47;5064830;28;19957;-76
2023/12/25 01:40:49;;;;;;;;;;;;;;;7.84;100.00;96099.06;5063856;28;20124;-79
2023/12/25 01:43:15;;;;;;;;;;;;;;;7.83;100.00;96093.06;5064836;28;19960;-79
2023/12/25 01:45:40;;;;;;;;;;;;;;;7.80;100.00;96093.47;5064712;28;20252;-78
2023/12/25 01:48:07;;;;;;;;;;;;;;;7.81;100.00;96109.91;5064850;28;19966;-80
2023/12/25 01:50:33;;;;;;;;;;;;;;;7.79;100.00;96107.53;5064285;28;19961;-79
2023/12/25 01:52:59;;;;;;;;;;;;;;;7.75;100.00;96106.34;5064691;28;19951;-79
2023/12/25 01:55:25;;;;;;;;;;;;;;;7.73;100.00;96113.59;5064353;28;20143;-70
2023/12/25 01:57:51;;;;;;;;;;;;;;;7.70;100.00;96100.94;5064310;28;19974;-73
2023/12/25 02:00:17;;;;;;;;;;;;;;;7.67;100.00;96094.31;5064232;28;20266;-81
2023/12/25 02:02:43;;;;;;;;;;;;;;;7.64;100.00;96097.38;5064685;28;19959;-79
2023/12/25 02:05:09;;;;;;;;;;;;;;;7.62;100.00;96090.72;5064227;28;20212;-79
2023/12/25 02:07:37;;;;;;;;;;;;;;;7.59;100.00;96091.16;5064148;28;19964;-79
2023/12/25 02:10:03;;;;;;;;;;;;;;;7.58;100.00;96089.53;5064402;28;20218;-79
2023/12/25 02:12:29;;;;;;;;;;;;;;;7.56;100.00;96091.56;5064383;28;19986;-79
2023/12/25 02:14:55;;;;;;;;;;;;;;;7.56;100.00;96079.34;5064413;28;19958;-72
2023/12/25 02:17:21;;;;;;;;;;;;;;;7.57;99.97;96072.31;5063841;28;20140;-76
2023/12/25 02:19:47;;;;;;;;;;;;;;;7.56;100.00;96078.50;5064556;28;20250;-76
2023/12/25 02:22:13;;;;;;;;;;;;;;;7.57;99.50;96078.31;5064269;28;19958;-76
2023/12/25 02:24:41;;;;;;;;;;;;;;;7.57;100.00;96095.78;5063907;28;19970;-76
2023/12/25 02:27:07;;;;;;;;;;;;;;;7.58;100.00;96092.16;5063885;28;20242;-76
2023/12/25 02:29:34;;;;;;;;;;;;;;;7.56;100.00;96099.38;5063911;28;19961;-76
2023/12/25 02:32:00;;;;;;;;;;;;;;;7.56;100.00;96108.03;5064026;28;19964;-72
2023/12/25 02:34:25;;;;;;;;;;;;;;;7.55;100.00;96098.59;5063836;28;20023;-82
2023/12/25 02:36:51;;;;;;;;;;;;;;;7.53;100.00;96090.97;5064289;28;20222;-82
2023/12/25 02:39:17;;;;;;;;;;;;;;;7.52;99.31;96073.72;5064247;28;19954;-82
2023/12/25 02:41:43;;;;;;;;;;;;;;;7.55;98.71;96071.72;5064178;28;20139;-83
2023/12/25 02:44:09;;;;;;;;;;;;;;;7.55;100.00;96090.75;5064657;28;20010;-83
2023/12/25 02:46:35;;;;;;;;;;;;;;;7.58;98.72;96076.50;5063928;28;20317;-82
2023/12/25 02:49:01;;;;;;;;;;;;;;;7.58;100.00;96069.50;5063641;28;19957;-82
2023/12/25 02:51:26;;;;;;;;;;;;;;;7.56;98.97;96055.03;5064814;28;20021;-69
2023/12/25 02:53:52;;;;;;;;;;;;;;;7.56;99.32;96071.50;5068066;28;19964;-76
2023/12/25 02:56:18;;;;;;;;;;;;;;;7.56;99.63;96062.84;5067642;28;20263;-76
2023/12/25 02:58:44;;;;;;;;;;;;;;;7.56;99.46;96063.69;5067609;28;19950;-77
2023/12/25 03:01:10;;;;;;;;;;;;;;;7.57;99.85;96064.47;5067663;28;19956;-76
2023/12/25 03:03:36;;;;;;;;;;;;;;;7.58;97.71;96058.22;5067606;28;19961;-76
2023/12/25 03:06:01;;;;;;;;;;;;;;;7.58;98.36;96058.22;5067788;28;20144;-76
2023/12/25 03:08:27;;;;;;;;;;;;;;;7.58;97.61;96059.06;5067432;28;19961;-76
2023/12/25 03:10:53;;;;;;;;;;;;;;;7.57;98.24;96041.00;5067688;28;20023;-71
2023/12/25 03:13:19;;;;;;;;;;;;;;;7.53;98.59;96051.81;5067616;28;19956;-83
2023/12/25 03:15:45;;;;;;;;;;;;;;;7.55;98.86;96061.28;5067605;28;20237;-81
2023/12/25 03:18:11;;;;;;;;;;;;;;;7.54;97.29;96057.88;5067090;28;19947;-82
2023/12/25 03:20:36;;;;;;;;;;;;;;;7.55;97.02;96049.00;5067148;28;20006;-82
2023/12/25 03:23:02;;;;;;;;;;;;;;;7.58;97.60;96046.00;5067688;28;19965;-83
2023/12/25 03:25:28;;;;;;;;;;;;;;;7.57;96.66;96052.22;5067079;28;19958;-82
2023/12/25 03:27:54;;;;;;;;;;;;;;;7.60;98.15;96056.22;5067043;28;19962;-74
2023/12/25 03:30:20;;;;;;;;;;;;;;;7.60;95.81;96037.94;5067107;28;20014;-76
2023/12/25 03:32:46;;;;;;;;;;;;;;;7.60;96.06;96040.56;5067311;28;19958;-76
2023/12/25 03:35:11;;;;;;;;;;;;;;;7.62;96.26;96043.75;5066411;28;20269;-76
2023/12/25 03:37:37;;;;;;;;;;;;;;;7.62;95.22;96041.97;5067343;28;19956;-76
2023/12/25 03:40:03;;;;;;;;;;;;;;;7.63;96.72;96051.38;5067283;28;20063;-77
2023/12/25 03:42:29;;;;;;;;;;;;;;;7.64;96.19;96042.56;5067119;28;19967;-76
2023/12/25 03:44:55;;;;;;;;;;;;;;;7.66;93.75;96029.28;5067124;28;19958;-76
2023/12/25 03:47:21;;;;;;;;;;;;;;;7.64;95.71;96053.00;5066417;28;19972;-72
2023/12/25 03:49:47;;;;;;;;;;;;;;;7.66;95.71;96031.91;5066990;28;20013;-68
2023/12/25 03:52:12;;;;;;;;;;;;;;;7.65;94.19;96023.28;5066521;28;20004;-69
2023/12/25 03:54:38;;;;;;;;;;;;;;;7.66;93.54;96026.69;5067054;28;19961;-69
2023/12/25 03:57:06;;;;;;;;;;;;;;;7.66;92.20;96000.56;5066547;28;19955;-69
2023/12/25 03:59:32;;;;;;;;;;;;;;;7.69;93.87;96015.84;5066509;28;20236;-69
2023/12/25 04:01:58;;;;;;;;;;;;;;;7.69;92.45;96013.22;5066494;28;19956;-69
2023/12/25 04:04:23;;;;;;;;;;;;;;;7.69;91.92;95997.56;5065339;28;19951;-77
2023/12/25 04:06:49;;;;;;;;;;;;;;;7.69;91.15;96000.97;5066492;28;19955;-71
2023/12/25 04:09:15;;;;;;;;;;;;;;;7.68;93.19;96003.78;5066484;28;19984;-72
2023/12/25 04:11:41;;;;;;;;;;;;;;;7.68;92.23;95995.94;5066541;28;19965;-72
2023/12/25 04:14:07;;;;;;;;;;;;;;;7.66;89.92;95979.69;5066606;28;19957;-72
2023/12/25 04:16:33;;;;;;;;;;;;;;;7.67;92.52;95995.16;5065830;28;19960;-73
2023/12/25 04:18:59;;;;;;;;;;;;;;;7.68;88.98;95967.25;5066675;28;19938;-72
2023/12/25 04:21:25;;;;;;;;;;;;;;;7.66;90.70;95962.22;5066348;28;19950;-72
2023/12/25 04:23:52;;;;;;;;;;;;;;;7.64;90.62;95968.66;5066538;28;19961;-83
2023/12/25 04:26:18;;;;;;;;;;;;;;;7.64;89.03;95961.66;5065997;28;19963;-79
2023/12/25 04:28:45;;;;;;;;;;;;;;;7.64;90.35;95964.28;5065773;28;19974;-79
2023/12/25 04:31:10;;;;;;;;;;;;;;;7.64;88.47;95950.41;5065920;28;19956;-79
2023/12/25 04:33:36;;;;;;;;;;;;;;;7.63;89.45;95956.66;5066262;28;19966;-79
2023/12/25 04:36:03;;;;;;;;;;;;;;;7.62;90.74;95963.69;5065961;28;19958;-79
2023/12/25 04:38:28;;;;;;;;;;;;;;;7.63;89.85;95965.28;5065898;28;20139;-79
2023/12/25 04:40:54;;;;;;;;;;;;;;;7.62;91.44;95973.31;5065949;28;19965;-70
2023/12/25 04:43:20;;;;;;;;;;;;;;;7.64;90.79;95966.06;5066747;28;19956;-80
2023/12/25 04:45:46;;;;;;;;;;;;;;;7.63;89.06;95972.31;5065361;28;20157;-76
2023/12/25 04:48:12;;;;;;;;;;;;;;;7.63;89.09;95977.53;5065283;28;20240;-76
2023/12/25 04:50:38;;;;;;;;;;;;;;;7.62;91.38;95996.78;5065380;28;19952;-76
2023/12/25 04:53:04;;;;;;;;;;;;;;;7.62;89.79;96005.44;5065800;28;19957;-78
2023/12/25 04:55:29;;;;;;;;;;;;;;;7.63;90.67;96001.81;5065430;28;20276;-76
2023/12/25 04:57:55;;;;;;;;;;;;;;;7.62;90.66;95997.59;5065355;28;19953;-76
2023/12/25 05:00:22;;;;;;;;;;;;;;;7.63;90.73;96003.63;5065105;28;19958;-69
2023/12/25 05:02:48;;;;;;;;;;;;;;;7.63;90.08;95995.78;5065396;28;19960;-71
2023/12/25 05:05:13;;;;;;;;;;;;;;;7.62;90.77;96009.84;5065684;28;20140;-70
2023/12/25 05:07:39;;;;;;;;;;;;;;;7.59;89.53;96005.84;5065292;28;19967;-70
2023/12/25 05:10:05;;;;;;;;;;;;;;;7.60;88.66;96004.03;5065379;28;19959;-70
2023/12/25 05:12:31;;;;;;;;;;;;;;;7.59;89.92;96000.63;5065363;28;19969;-70
2023/12/25 05:14:57;;;;;;;;;;;;;;;7.58;90.36;96003.44;5065027;28;19978;-70
2023/12/25 05:17:23;;;;;;;;;;;;;;;7.58;90.12;96000.81;5065263;28;20303;-79
2023/12/25 05:19:49;;;;;;;;;;;;;;;7.56;91.65;96000.22;5065311;28;20032;-82
2023/12/25 05:22:15;;;;;;;;;;;;;;;7.53;90.08;96010.06;5065351;28;20011;-76
2023/12/25 05:24:40;;;;;;;;;;;;;;;7.51;91.47;96000.88;5064859;28;19961;-76
2023/12/25 05:27:06;;;;;;;;;;;;;;;7.48;91.23;95991.66;5064260;28;19962;-77
2023/12/25 05:29:32;;;;;;;;;;;;;;;7.47;91.41;95990.03;5064554;28;20030;-77
2023/12/25 05:31:58;;;;;;;;;;;;;;;7.45;91.43;95992.06;5064825;28;20027;-76
2023/12/25 05:34:23;;;;;;;;;;;;;;;7.43;92.19;95975.84;5064720;28;19976;-77
2023/12/25 05:36:50;;;;;;;;;;;;;;;7.41;92.03;95983.06;5064818;28;19954;-71
2023/12/25 05:39:16;;;;;;;;;;;;;;;7.39;92.18;95977.25;5064971;28;19964;-73
2023/12/25 05:41:41;;;;;;;;;;;;;;;7.38;92.71;95991.31;5064752;28;19967;-73
2023/12/25 05:44:07;;;;;;;;;;;;;;;7.35;92.55;95981.31;5064892;28;19959;-73
2023/12/25 05:46:33;;;;;;;;;;;;;;;7.33;92.75;95993.75;5064752;28;20012;-74
2023/12/25 05:48:59;;;;;;;;;;;;;;;7.31;92.24;95980.13;5064832;28;20011;-73
2023/12/25 05:51:25;;;;;;;;;;;;;;;7.30;92.42;95983.72;5064268;28;19966;-73
2023/12/25 05:53:50;;;;;;;;;;;;;;;7.30;92.41;95981.91;5064667;28;19964;-73
2023/12/25 05:56:16;;;;;;;;;;;;;;;7.28;92.38;95985.72;5064686;28;19962;-83
2023/12/25 05:58:42;;;;;;;;;;;;;;;7.26;92.24;95983.31;5064044;28;19960;-76
2023/12/25 06:01:12;;;;;;;;;;;;;;;7.25;91.86;95992.16;5064288;28;19960;-77
2023/12/25 06:03:41;;;;;;;;;;;;;;;7.23;93.15;95998.59;5064253;28;19963;-77
2023/12/25 06:06:07;;;;;;;;;;;;;;;7.19;92.62;95993.00;5064429;28;20131;-76
2023/12/25 06:08:33;;;;;;;;;;;;;;;7.18;92.52;95973.16;5064209;28;20274;-76
2023/12/25 06:11:00;;;;;;;;;;;;;;;7.16;92.71;95992.59;5063994;28;20128;-76
2023/12/25 06:13:25;;;;;;;;;;;;;;;7.14;92.47;96003.25;5064397;28;19934;-79
2023/12/25 06:15:52;;;;;;;;;;;;;;;7.14;92.01;96003.25;5064365;28;19988;-78
2023/12/25 06:18:18;;;;;;;;;;;;;;;7.15;92.35;96011.88;5063414;28;19950;-72
2023/12/25 06:20:44;;;;;;;;;;;;;;;7.15;90.81;95997.03;5064518;28;19961;-72
2023/12/25 06:23:10;;;;;;;;;;;;;;;7.13;92.43;96006.84;5063945;28;19956;-72
2023/12/25 06:25:36;;;;;;;;;;;;;;;7.12;91.86;96002.66;5063711;28;19961;-72
2023/12/25 06:28:02;;;;;;;;;;;;;;;7.11;91.66;96003.66;5063096;28;19966;-72
2023/12/25 06:30:28;;;;;;;;;;;;;;;7.10;92.84;96007.28;5063975;28;19957;-72
2023/12/25 06:32:54;;;;;;;;;;;;;;;7.08;91.59;96001.47;5063999;28;19953;-76
2023/12/25 06:35:20;;;;;;;;;;;;;;;7.06;92.30;96004.28;5064024;28;19970;-68
2023/12/25 06:37:46;;;;;;;;;;;;;;;7.05;91.94;96004.47;5063563;28;19959;-69
2023/12/25 06:40:11;;;;;;;;;;;;;;;7.05;92.56;96004.47;5064170;28;19970;-68
2023/12/25 06:42:37;;;;;;;;;;;;;;;7.03;92.13;96015.09;5064161;28;20128;-68
2023/12/25 06:45:05;;;;;;;;;;;;;;;7.02;91.51;96000.47;5064104;28;20249;-68
2023/12/25 06:47:31;;;;;;;;;;;;;;;7.03;92.99;95996.06;5063981;28;19968;-69
2023/12/25 06:49:57;;;;;;;;;;;;;;;7.01;91.75;95991.03;5064016;28;19956;-71
2023/12/25 06:52:23;;;;;;;;;;;;;;;7.03;92.72;95998.66;5064261;28;20234;-68
2023/12/25 06:54:48;;;;;;;;;;;;;;;7.00;92.77;96012.91;5063737;28;20004;-82
2023/12/25 06:57:14;;;;;;;;;;;;;;;6.98;93.03;96017.53;5064171;28;20137;-81
2023/12/25 06:59:40;;;;;;;;;;;;;;;6.96;92.72;96029.19;5064073;28;19962;-82
2023/12/25 07:02:09;;;;;;;;;;;;;;;6.95;93.49;96032.78;5063723;28;19958;-82
2023/12/25 07:04:35;;;;;;;;;;;;;;;6.93;93.48;96025.19;5063731;28;19962;-82
2023/12/25 07:07:01;;;;;;;;;;;;;;;6.93;93.34;96050.44;5063478;28;19963;-82
2023/12/25 07:09:29;;;;;;;;;;;;;;;6.91;94.66;96050.66;5062960;28;20962;-77
2023/12/25 07:11:55;;;;;;;;;;;;;;;6.89;94.37;96063.09;5063869;28;20230;-82
2023/12/25 07:14:24;;;;;;;;;;;;;;;6.87;94.47;96052.06;5063868;28;19959;-81
2023/12/25 07:16:50;;;;;;;;;;;;;;;6.84;93.74;96058.47;5063431;28;20251;-82
2023/12/25 07:19:16;;;;;;;;;;;;;;;6.84;93.96;96053.25;5063443;28;19961;-82
2023/12/25 07:21:42;;;;;;;;;;;;;;;6.86;93.76;96045.25;5063339;28;19955;-82
2023/12/25 07:24:08;;;;;;;;;;;;;;;6.86;94.54;96046.03;5063390;28;20031;-82
2023/12/25 07:26:34;;;;;;;;;;;;;;;6.87;94.68;96058.06;5063893;28;19999;-82
2023/12/25 07:29:00;;;;;;;;;;;;;;;6.89;94.02;96057.88;5063579;28;20000;-82
2023/12/25 07:31:25;;;;;;;;;;;;;;;6.91;94.31;96055.88;5063426;28;19955;-73
2023/12/25 07:33:51;;;;;;;;;;;;;;;6.93;94.67;96059.06;5063613;28;19960;-71
2023/12/25 07:36:17;;;;;;;;;;;;;;;6.95;95.17;96071.88;5063089;28;19965;-72
2023/12/25 07:38:43;;;;;;;;;;;;;;;6.96;94.42;96076.09;5065413;28;19969;-72
2023/12/25 07:41:09;;;;;;;;;;;;;;;6.98;94.79;96082.72;5067173;28;19994;-73
2023/12/25 07:43:36;;;;;;;;;;;;;;;7.00;94.57;96085.13;5067079;28;19962;-72
2023/12/25 07:46:08;;;;;;;;;;;;;;;7.02;94.81;96085.72;5067045;28;19990;-78
2023/12/25 07:48:35;;;;;;;;;;;;;;;7.05;93.94;96085.31;5066990;28;19966;-81
2023/12/25 07:51:01;;;;;;;;;;;;;;;7.06;94.32;96089.53;5067216;28;19950;-81
2023/12/25 07:53:27;;;;;;;;;;;;;;;7.06;95.08;96095.53;5066905;28;19961;-82
2023/12/25 07:55:53;;;;;;;;;;;;;;;7.07;95.96;96099.72;5066356;28;19961;-82
2023/12/25 07:58:18;;;;;;;;;;;;;;;7.06;95.14;96105.97;5066597;28;19958;-81
2023/12/25 08:00:44;;;;;;;;;;;;;;;7.08;94.84;96105.78;5066662;28;19964;-81
2023/12/25 08:03:10;;;;;;;;;;;;;;;7.08;95.10;96119.59;5066871;28;19960;-68
2023/12/25 08:05:36;;;;;;;;;;;;;;;7.08;94.83;96124.81;5066246;28;19960;-71
2023/12/25 08:08:02;;;;;;;;;;;;;;;7.11;94.89;96121.78;5066596;28;19964;-78
2023/12/25 08:10:28;;;;;;;;;;;;;;;7.10;95.20;96125.41;5066559;28;19986;-78
2023/12/25 08:12:55;;;;;;;;;;;;;;;7.13;95.47;96136.44;5066527;28;19958;-77
2023/12/25 08:15:20;;;;;;;;;;;;;;;7.11;94.93;96129.59;5066763;28;19938;-78
2023/12/25 08:17:46;;;;;;;;;;;;;;;7.12;95.44;96122.59;5066553;28;19957;-78
2023/12/25 08:20:12;;;;;;;;;;;;;;;7.14;95.09;96125.81;5066100;28;19950;-78
2023/12/25 08:22:38;;;;;;;;;;;;;;;7.14;95.40;96122.38;5066071;28;20227;-70
2023/12/25 08:25:04;;;;;;;;;;;;;;;7.15;95.31;96143.06;5066137;28;19954;-68
2023/12/25 08:27:30;;;;;;;;;;;;;;;7.15;96.23;96147.47;5066073;28;19963;-69
2023/12/25 08:29:56;;;;;;;;;;;;;;;7.15;96.18;96171.72;5048248;28;19957;-68
2023/12/25 08:32:21;;;;;;;;;;;;;;;7.14;96.48;96177.16;5065945;28;19961;-68
2023/12/25 08:34:47;;;;;;;;;;;;;;;7.15;97.24;96195.22;5065650;28;19965;-68
2023/12/25 08:37:13;;;;;;;;;;;;;;;7.16;97.08;96193.41;5066163;28;19956;-68
2023/12/25 08:39:39;;;;;;;;;;;;;;;7.16;96.64;96199.44;5066040;28;19972;-68
2023/12/25 08:42:05;;;;;;;;;;;;;;;7.18;97.01;96196.59;5066074;28;20265;-77
2023/12/25 08:44:34;;;;;;;;;;;;;;;7.25;96.78;96203.44;5065448;28;20015;-69
2023/12/25 08:47:00;;;;;;;;;;;;;;;7.29;97.22;96199.41;5066193;28;19955;-68
2023/12/25 08:49:26;;;;;;;;;;;;;;;7.37;96.64;96215.84;5064751;28;20079;-69
2023/12/25 08:51:52;;;;;;;;;;;;;;;7.43;97.52;96222.84;5066016;28;20046;-68
2023/12/25 08:54:18;;;;;;;;;;;;;;;7.49;97.99;96227.25;5065422;28;19952;-68
2023/12/25 08:56:44;;;;;;;;;;;;;;;7.52;97.07;96216.44;5065472;28;19964;-68
2023/12/25 08:59:10;;;;;;;;;;;;;;;7.53;97.55;96224.03;5065446;28;19957;-77
2023/12/25 09:01:35;;;;;;;;;;;;;;;7.53;97.77;96226.66;5065396;28;19991;-81
2023/12/25 09:04:01;;;;;;;;;;;;;;;7.57;97.85;96221.03;5065584;28;19959;-82
2023/12/25 09:06:27;;;;;;;;;;;;;;;7.56;97.81;96215.03;5065523;28;19993;-82
2023/12/25 09:08:53;;;;;;;;;;;;;;;7.56;98.47;96209.81;5065533;28;20220;-82
2023/12/25 09:11:19;;;;;;;;;;;;;;;7.58;98.30;96225.22;5065482;28;19953;-81
2023/12/25 09:13:45;;;;;;;;;;;;;;;7.61;98.76;96228.25;5064893;28;19940;-82
2023/12/25 09:16:11;;;;;;;;;;;;;;;7.68;99.14;96225.63;5065668;28;19955;-82
2023/12/25 09:18:37;;;;;;;;;;;;;;;7.71;98.73;96215.56;5064883;28;19962;-78
2023/12/25 09:21:02;;;;;;;;;;;;;;;7.75;98.92;96215.97;5064930;28;20235;-74
2023/12/25 09:23:29;;;;;;;;;;;;;;;7.81;99.55;96223.00;5065151;28;20029;-74
2023/12/25 09:25:54;;;;;;;;;;;;;;;7.87;99.40;96224.78;5064877;28;20110;-73
2023/12/25 09:28:21;;;;;;;;;;;;;;;7.93;100.00;96231.75;5064840;28;19972;-73
2023/12/25 09:30:46;;;;;;;;;;;;;;;8.00;99.95;96223.09;5064904;28;20139;-73
2023/12/25 09:33:12;;;;;;;;;;;;;;;8.06;100.00;96238.78;5065187;28;19975;-73
2023/12/25 09:35:38;;;;;;;;;;;;;;;8.14;100.00;96235.91;5064937;28;19959;-79
2023/12/25 09:38:04;;;;;;;;;;;;;;;8.21;100.00;96235.91;5065051;28;19965;-76
2023/12/25 09:40:30;;;;;;;;;;;;;;;8.27;100.00;96240.28;5064912;28;19957;-70
2023/12/25 09:42:58;;;;;;;;;;;;;;;8.31;100.00;96240.66;5064323;28;19962;-70
2023/12/25 09:45:26;;;;;;;;;;;;;;;8.34;100.00;96232.41;5064897;28;19971;-70
2023/12/25 09:47:52;;;;;;;;;;;;;;;8.33;100.00;96236.03;5064920;28;19959;-70
2023/12/25 09:50:20;;;;;;;;;;;;;;;8.34;100.00;96229.81;5064917;28;19979;-70
2023/12/25 09:52:46;;;;;;;;;;;;;;;8.42;100.00;96232.22;5064394;28;19967;-70
2023/12/25 09:55:12;;;;;;;;;;;;;;;8.49;100.00;96238.19;5064444;28;19950;-70
2023/12/25 09:57:39;;;;;;;;;;;;;;;8.53;100.00;96239.38;5064374;28;19977;-76
2023/12/25 10:00:06;;;;;;;;;;;;;;;8.62;100.00;96236.53;5064455;28;20345;-76
2023/12/25 10:02:36;;;;;;;;;;;;;;;8.73;100.00;96226.19;5063538;28;19955;-76
2023/12/25 10:05:02;;;;;;;;;;;;;;;8.85;100.00;96239.38;5064487;28;20137;-76
2023/12/25 10:07:27;;;;;;;;;;;;;;;8.87;100.00;96229.50;5064420;28;19959;-77
2023/12/25 10:09:53;;;;;;;;;;;;;;;8.96;100.00;96237.09;5064695;28;19972;-77
2023/12/25 10:12:19;;;;;;;;;;;;;;;9.01;100.00;96232.03;5064776;28;19950;-68
2023/12/25 10:14:46;;;;;;;;;;;;;;;9.07;100.00;96234.59;5064687;28;19967;-73
2023/12/25 10:17:12;;;;;;;;;;;;;;;9.10;100.00;96236.78;5063548;28;19963;-70
2023/12/25 10:19:48;;;;;;;;;;;;;;;9.10;100.00;96234.16;5064301;28;19960;-70
2023/12/25 10:22:26;;;;;;;;;;;;;;;9.19;100.00;96226.06;5064520;28;20254;-70
2023/12/25 10:24:52;;;;;;;;;;;;;;;9.26;100.00;96237.25;5064183;28;20283;-70
2023/12/25 10:27:18;;;;;;;;;;;;;;;9.29;100.00;96223.75;5064119;28;19961;-70
2023/12/25 10:29:45;;;;;;;;;;;;;;;9.32;100.00;96224.13;5064149;28;20028;-70
2023/12/25 10:32:18;;;;;;;;;;;;;;;9.28;100.00;96220.34;5064281;28;19960;-82
2023/12/25 10:34:44;;;;;;;;;;;;;;;9.23;100.00;96232.47;5064208;28;19949;-77
2023/12/25 10:37:11;;;;;;;;;;;;;;;9.20;100.00;96231.09;5063726;28;19979;-77
2023/12/25 10:39:37;;;;;;;;;;;;;;;9.26;100.00;96234.63;5063803;28;19958;-78
2023/12/25 10:42:03;;;;;;;;;;;;;;;9.28;100.00;96243.91;5063744;28;20012;-77
2023/12/25 10:44:31;;;;;;;;;;;;;;;9.31;100.00;96234.81;5064069;28;19959;-78
2023/12/25 10:46:59;;;;;;;;;;;;;;;9.32;100.00;96232.00;5062907;28;19970;-77
2023/12/25 10:49:25;;;;;;;;;;;;;;;9.39;100.00;96246.84;5063797;28;19965;-82
2023/12/25 10:51:51;;;;;;;;;;;;;;;9.39;100.00;96246.84;5064246;28;19956;-83
2023/12/25 10:54:19;;;;;;;;;;;;;;;9.32;100.00;96239.03;5064188;28;20233;-73
2023/12/25 10:56:46;;;;;;;;;;;;;;;9.28;100.00;96238.66;5063928;28;20257;-73
2023/12/25 10:59:12;;;;;;;;;;;;;;;9.36;100.00;96248.03;5064035;28;19956;-73
2023/12/25 11:01:39;;;;;;;;;;;;;;;9.40;100.00;96230.09;5045907;28;19982;-73
2023/12/25 11:04:05;;;;;;;;;;;;;;;9.45;100.00;96238.09;5063963;28;19945;-73
2023/12/25 11:06:31;;;;;;;;;;;;;;;9.55;100.00;96243.66;5063947;28;19958;-73
2023/12/25 11:08:58;;;;;;;;;;;;;;;9.63;100.00;96237.34;5063294;28;20234;-70
2023/12/25 11:11:24;;;;;;;;;;;;;;;9.66;100.00;96237.72;5064152;28;20145;-71
2023/12/25 11:13:49;;;;;;;;;;;;;;;9.74;100.00;96241.84;5066737;28;19962;-71
2023/12/25 11:16:16;;;;;;;;;;;;;;;9.80;100.00;96230.50;5067421;28;20189;-71
2023/12/25 11:18:42;;;;;;;;;;;;;;;9.87;100.00;96236.50;5067408;28;19955;-71
2023/12/25 11:21:12;;;;;;;;;;;;;;;9.83;100.00;96231.91;5067718;28;19972;-71
2023/12/25 11:23:40;;;;;;;;;;;;;;;9.85;100.00;96246.38;5067401;28;20146;-71
2023/12/25 11:26:10;;;;;;;;;;;;;;;9.88;100.00;96232.03;5067512;28;20260;-82
2023/12/25 11:28:41;;;;;;;;;;;;;;;9.93;100.00;96224.31;5067883;28;19966;-71
2023/12/25 11:31:07;;;;;;;;;;;;;;;9.95;100.00;96227.50;5067397;28;20116;-70
2023/12/25 11:33:45;;;;;;;;;;;;;;;9.98;100.00;96227.09;5066874;28;19966;-71
2023/12/25 11:36:13;;;;;;;;;;;;;;;9.98;100.00;96237.56;5066961;28;19962;-70
2023/12/25 11:38:43;;;;;;;;;;;;;;;9.98;100.00;96227.09;5066635;28;20162;-70
2023/12/25 11:41:14;;;;;;;;;;;;;;;9.94;100.00;96228.56;5067117;28;19966;-70
2023/12/25 11:43:40;;;;;;;;;;;;;;;9.86;100.00;96232.25;5067220;28;20129;-70
2023/12/25 11:46:09;;;;;;;;;;;;;;;9.87;100.00;96230.44;5067315;28;19953;-68
2023/12/25 11:48:35;;;;;;;;;;;;;;;9.86;100.00;96234.88;5066860;28;20273;-73
2023/12/25 11:51:17;;;;;;;;;;;;;;;9.80;100.00;96227.09;5067807;28;19966;-73
2023/12/25 11:53:44;;;;;;;;;;;;;;;9.76;100.00;96226.72;5067004;28;19960;-73
2023/12/25 11:56:11;;;;;;;;;;;;;;;9.76;100.00;96237.19;5066992;28;20220;-73
2023/12/25 11:58:36;;;;;;;;;;;;;;;9.84;100.00;96238.72;5066503;28;19962;-73
2023/12/25 12:01:03;;;;;;;;;;;;;;;10.00;100.00;96237.38;5065867;28;20010;-73
2023/12/25 12:03:29;;;;;;;;;;;;;;;10.13;100.00;96245.06;5066559;28;20228;-73
2023/12/25 12:05:55;;;;;;;;;;;;;;;10.19;100.00;96231.09;5066750;28;19972;-83
2023/12/25 12:08:21;;;;;;;;;;;;;;;10.24;100.00;96248.75;5066252;28;20018;-83
2023/12/25 12:10:46;;;;;;;;;;;;;;;10.22;100.00;96242.94;5066627;28;20014;-83
2023/12/25 12:13:12;;;;;;;;;;;;;;;10.14;100.00;96251.88;5066582;28;19979;-83
2023/12/25 12:15:38;;;;;;;;;;;;;;;10.11;100.00;96263.63;5066565;28;19960;-83
2023/12/25 12:18:05;;;;;;;;;;;;;;;10.14;100.00;96246.66;5066572;28;20296;-83
2023/12/25 12:20:31;;;;;;;;;;;;;;;10.16;100.00;96249.84;5066486;28;19959;-84
2023/12/25 12:22:57;;;;;;;;;;;;;;;10.16;100.00;96252.47;5066779;28;19982;-71
2023/12/25 12:25:23;;;;;;;;;;;;;;;10.09;100.00;96249.94;5064930;28;20221;-68
2023/12/25 12:27:49;;;;;;;;;;;;;;;10.05;100.00;96259.25;5065957;28;20002;-67
2023/12/25 12:30:16;;;;;;;;;;;;;;;10.02;100.00;96257.06;5066317;28;19963;-68
2023/12/25 12:32:42;;;;;;;;;;;;;;;10.01;100.00;96262.53;5065908;28;19955;-69
2023/12/25 12:35:08;;;;;;;;;;;;;;;9.94;100.00;96252.13;5066007;28;20148;-68
2023/12/25 12:37:34;;;;;;;;;;;;;;;9.88;100.00;96269.50;5065567;28;19961;-69
2023/12/25 12:40:04;;;;;;;;;;;;;;;9.85;100.00;96262.09;5066010;28;20226;-76
2023/12/25 12:42:33;;;;;;;;;;;;;;;9.85;100.00;96274.38;5066016;28;19957;-73
2023/12/25 12:45:00;;;;;;;;;;;;;;;9.81;100.00;96263.53;5065994;28;19990;-72
2023/12/25 12:47:26;;;;;;;;;;;;;;;9.80;100.00;96245.41;5065969;28;20260;-72